createdAt,value
2023-04-09T00:02:26.693Z,100086.72
2023-04-09T00:04:59.437Z,100091.28
2023-04-09T00:07:31.127Z,100088.03
2023-04-09T00:10:02.878Z,100083.28
2023-04-09T00:12:34.730Z,100086.25
2023-04-09T00:15:09.677Z,100088.53
2023-04-09T00:17:43.029Z,100085.19
2023-04-09T00:20:14.813Z,100069.22
2023-04-09T00:22:46.707Z,100077.09
2023-04-09T00:25:18.905Z,100079.22
2023-04-09T00:27:51.127Z,100081.03
2023-04-09T00:30:23.330Z,100086.88
2023-04-09T00:32:55.464Z,100086.72
2023-04-09T00:35:27.300Z,100095.31
2023-04-09T00:37:59.065Z,100098.53
2023-04-09T00:40:31.030Z,100089.59
2023-04-09T00:43:02.920Z,100080.06
2023-04-09T00:45:35.014Z,100073.41
2023-04-09T00:48:07.488Z,100085.78
2023-04-09T00:50:39.250Z,100088.50
2023-04-09T00:53:12.241Z,100085.69
2023-04-09T00:55:44.814Z,100079.47
2023-04-09T00:58:17.125Z,100080.91
2023-04-09T01:00:48.866Z,100090.56
2023-04-09T01:03:20.785Z,100086.50
2023-04-09T01:06:07.741Z,100081.84
2023-04-09T01:08:48.589Z,100087.22
2023-04-09T01:11:38.772Z,100082.44
2023-04-09T01:14:56.917Z,100076.63
2023-04-09T01:17:42.982Z,100080.91
2023-04-09T01:20:21.052Z,100085.06
2023-04-09T01:23:10.942Z,100082.22
2023-04-09T01:25:47.640Z,100084.00
2023-04-09T01:28:42.649Z,100083.06
2023-04-09T01:31:18.427Z,100076.50
2023-04-09T01:33:52.548Z,100079.25
2023-04-09T01:36:26.497Z,100071.84
2023-04-09T01:39:01.163Z,100083.06
2023-04-09T01:41:34.563Z,100086.16
2023-04-09T01:44:08.222Z,100080.81
2023-04-09T01:46:40.229Z,100077.34
2023-04-09T01:49:12.485Z,100064.94
2023-04-09T01:51:44.570Z,100073.63
2023-04-09T01:54:16.949Z,100076.25
2023-04-09T01:56:49.096Z,100074.59
2023-04-09T01:59:23.622Z,100069.97
2023-04-09T02:02:11.372Z,100070.78
2023-04-09T02:04:48.016Z,100064.34
2023-04-09T02:07:32.676Z,100064.81
2023-04-09T02:10:06.545Z,100073.03
2023-04-09T02:12:41.178Z,100064.94
2023-04-09T02:15:13.809Z,100064.69
2023-04-09T02:17:45.726Z,100069.22
2023-04-09T02:20:18.974Z,100068.16
2023-04-09T02:22:51.214Z,100073.38
2023-04-09T02:25:23.167Z,100069.75
2023-04-09T02:27:54.882Z,100070.44
2023-04-09T02:30:26.543Z,100062.19
2023-04-09T02:32:58.276Z,100064.59
2023-04-09T02:35:30.016Z,100064.69
2023-04-09T02:38:02.135Z,100059.09
2023-04-09T02:40:33.818Z,100057.94
2023-04-09T02:43:05.554Z,100064.59
2023-04-09T02:45:37.318Z,100065.88
2023-04-09T02:48:09.097Z,100075.16
2023-04-09T02:50:41.020Z,100078.25
2023-04-09T02:53:12.870Z,100075.50
2023-04-09T02:55:44.621Z,100067.06
2023-04-09T02:58:16.353Z,100064.19
2023-04-09T03:00:48.377Z,100066.97
2023-04-09T03:03:20.244Z,100069.56
2023-04-09T03:05:52.184Z,100059.88
2023-04-09T03:08:24.009Z,100051.56
2023-04-09T03:10:55.708Z,100055.84
2023-04-09T03:13:30.790Z,100054.44
2023-04-09T03:16:03.305Z,100049.56
2023-04-09T03:18:35.215Z,100052.31
2023-04-09T03:21:07.921Z,100064.09
2023-04-09T03:23:42.421Z,100058.38
2023-04-09T03:26:14.076Z,100055.63
2023-04-09T03:28:52.984Z,100053.25
2023-04-09T03:31:25.004Z,100054.94
2023-04-09T03:33:56.736Z,100057.78
2023-04-09T03:36:31.615Z,100056.94
2023-04-09T03:39:15.219Z,100056.84
2023-04-09T03:41:48.805Z,100048.97
2023-04-09T03:44:22.303Z,100053.63
2023-04-09T03:47:15.535Z,100049.09
2023-04-09T03:49:47.483Z,100045.88
2023-04-09T03:52:25.081Z,100040.63
2023-04-09T03:55:05.444Z,100037.19
2023-04-09T03:57:38.322Z,100043.25
2023-04-09T04:00:13.988Z,100040.16
2023-04-09T04:03:24.047Z,100036.09
2023-04-09T04:06:12.117Z,100036.69
2023-04-09T04:09:02.502Z,100043.63
2023-04-09T04:11:58.931Z,100045.78
2023-04-09T04:14:43.938Z,100051.69
2023-04-09T04:17:26.180Z,100060.88
2023-04-09T04:19:59.499Z,100056.47
2023-04-09T04:22:34.675Z,100067.28
2023-04-09T04:25:09.174Z,100066.34
2023-04-09T04:27:43.896Z,100074.47
2023-04-09T04:30:17.501Z,100080.41
2023-04-09T04:33:01.167Z,100087.59
2023-04-09T04:35:38.851Z,100078.66
2023-04-09T04:38:13.624Z,100080.69
2023-04-09T04:40:45.508Z,100087.72
2023-04-09T04:43:17.328Z,100081.28
2023-04-09T04:45:49.199Z,100081.84
2023-04-09T04:48:21.688Z,100079.47
2023-04-09T04:50:58.540Z,100075.06
2023-04-09T04:53:34.661Z,100079.38
2023-04-09T04:56:16.727Z,100070.56
2023-04-09T04:59:06.051Z,100071.63
2023-04-09T05:01:50.194Z,100077.94
2023-04-09T05:04:21.983Z,100077.72
2023-04-09T05:06:53.736Z,100069.84
2023-04-09T05:09:27.851Z,100086.03
2023-04-09T05:12:17.875Z,100082.69
2023-04-09T05:14:53.587Z,100078.19
2023-04-09T05:17:26.045Z,100077.94
2023-04-09T05:19:58.531Z,100077.19
2023-04-09T05:22:38.270Z,100077.19
2023-04-09T05:25:10.840Z,100084.00
2023-04-09T05:27:47.344Z,100091.50
2023-04-09T05:30:19.902Z,100087.47
2023-04-09T05:32:51.770Z,100098.88
2023-04-09T05:35:23.683Z,100093.19
2023-04-09T05:37:55.639Z,100099.50
2023-04-09T05:40:27.417Z,100097.25
2023-04-09T05:42:59.791Z,100099.16
2023-04-09T05:45:44.797Z,100105.59
2023-04-09T05:48:18.367Z,100102.47
2023-04-09T05:50:55.588Z,100100.56
2023-04-09T05:53:32.105Z,100098.56
2023-04-09T05:56:04.152Z,100108.31
2023-04-09T05:58:51.416Z,100102.84
2023-04-09T06:01:23.230Z,100107.50
2023-04-09T06:03:57.708Z,100106.19
2023-04-09T06:06:30.017Z,100115.59
2023-04-09T06:09:01.860Z,100112.72
2023-04-09T06:11:34.512Z,100113.94
2023-04-09T06:14:07.291Z,100113.84
2023-04-09T06:16:39.000Z,100107.38
2023-04-09T06:19:12.442Z,100118.09
2023-04-09T06:21:44.224Z,100113.31
2023-04-09T06:24:16.031Z,100110.59
2023-04-09T06:26:47.702Z,100114.41
2023-04-09T06:29:19.514Z,100116.53
2023-04-09T06:31:51.320Z,100124.75
2023-04-09T06:34:23.072Z,100127.25
2023-04-09T06:36:54.807Z,100127.75
2023-04-09T06:39:26.478Z,100122.72
2023-04-09T06:41:58.144Z,100126.66
2023-04-09T06:44:41.371Z,100123.19
2023-04-09T06:47:13.039Z,100128.31
2023-04-09T06:49:44.708Z,100133.09
2023-04-09T06:52:16.517Z,100134.75
2023-04-09T06:54:48.197Z,100133.81
2023-04-09T06:57:19.881Z,100134.75
2023-04-09T06:59:51.654Z,100148.72
2023-04-09T07:02:23.531Z,100143.66
2023-04-09T07:04:55.445Z,100145.81
2023-04-09T07:07:27.151Z,100143.41
2023-04-09T07:09:58.906Z,100153.16
2023-04-09T07:12:32.396Z,100151.16
2023-04-09T07:15:06.539Z,100144.69
2023-04-09T07:17:38.464Z,100152.19
2023-04-09T07:20:10.815Z,100143.00
2023-04-09T07:22:42.504Z,100142.31
2023-04-09T07:25:15.366Z,100148.25
2023-04-09T07:27:47.212Z,100150.25
2023-04-09T07:30:19.016Z,100140.72
2023-04-09T07:32:50.903Z,100147.41
2023-04-09T07:35:23.778Z,100150.31
2023-04-09T07:37:55.880Z,100145.28
2023-04-09T07:40:27.660Z,100143.00
2023-04-09T07:42:59.352Z,100148.06
2023-04-09T07:45:31.107Z,100138.91
2023-04-09T07:48:02.830Z,100149.75
2023-04-09T07:50:34.767Z,100146.22
2023-04-09T07:53:06.474Z,100157.16
2023-04-09T07:55:38.216Z,100159.34
2023-04-09T07:58:10.200Z,100151.53
2023-04-09T08:00:42.100Z,100157.94
2023-04-09T08:03:14.275Z,100150.47
2023-04-09T08:05:46.202Z,100165.56
2023-04-09T08:08:17.989Z,100167.88
2023-04-09T08:10:49.726Z,100154.00
2023-04-09T08:13:24.246Z,100155.50
2023-04-09T08:15:56.058Z,100159.31
2023-04-09T08:18:28.410Z,100163.16
2023-04-09T08:21:04.747Z,100160.44
2023-04-09T08:23:36.499Z,100156.41
2023-04-09T08:26:08.209Z,100155.06
2023-04-09T08:28:39.954Z,100152.16
2023-04-09T08:31:11.769Z,100150.63
2023-04-09T08:33:43.502Z,100153.00
2023-04-09T08:36:16.066Z,100157.81
2023-04-09T08:38:48.791Z,100149.81
2023-04-09T08:41:22.029Z,100158.63
2023-04-09T08:43:58.206Z,100150.84
2023-04-09T08:46:32.167Z,100162.19
2023-04-09T08:49:04.043Z,100162.03
2023-04-09T08:51:35.934Z,100154.56
2023-04-09T08:54:08.017Z,100153.63
2023-04-09T08:56:39.741Z,100164.84
2023-04-09T08:59:11.505Z,100146.75
2023-04-09T09:01:43.367Z,100157.03
2023-04-09T09:04:15.573Z,100150.81
2023-04-09T09:06:47.400Z,100141.94
2023-04-09T09:09:19.083Z,100145.41
2023-04-09T09:11:52.035Z,100139.16
2023-04-09T09:14:23.804Z,100143.09
2023-04-09T09:16:55.536Z,100140.78
2023-04-09T09:19:27.188Z,100137.56
2023-04-09T09:22:06.661Z,100137.59
2023-04-09T09:24:52.891Z,100137.88
2023-04-09T09:27:39.306Z,100140.25
2023-04-09T09:30:24.703Z,100139.38
2023-04-09T09:33:09.752Z,100151.75
2023-04-09T09:35:51.560Z,100149.78
2023-04-09T09:38:24.560Z,100155.66
2023-04-09T09:40:56.734Z,100155.00
2023-04-09T09:43:42.239Z,100146.38
2023-04-09T09:46:14.948Z,100145.06
2023-04-09T09:48:46.893Z,100143.56
2023-04-09T09:51:19.727Z,100144.72
2023-04-09T09:53:54.651Z,100140.22
2023-04-09T09:56:34.754Z,100150.97
2023-04-09T09:59:11.019Z,100140.88
2023-04-09T10:01:44.058Z,100135.59
2023-04-09T10:04:17.402Z,100142.78
2023-04-09T10:06:52.160Z,100136.91
2023-04-09T10:09:27.890Z,100131.06
2023-04-09T10:12:00.715Z,100134.34
2023-04-09T10:14:33.737Z,100130.41
2023-04-09T10:17:05.852Z,100123.69
2023-04-09T10:19:46.784Z,100126.03
2023-04-09T10:22:25.659Z,100121.28
2023-04-09T10:24:58.164Z,100119.75
2023-04-09T10:27:29.928Z,100115.16
2023-04-09T10:30:01.970Z,100123.19
2023-04-09T10:32:36.283Z,100121.59
2023-04-09T10:35:09.628Z,100115.72
2023-04-09T10:37:50.718Z,100110.72
2023-04-09T10:40:22.516Z,100097.19
2023-04-09T10:42:56.385Z,100104.50
2023-04-09T10:45:40.712Z,100107.13
2023-04-09T10:48:14.103Z,100113.84
2023-04-09T10:50:46.358Z,100109.53
2023-04-09T10:53:23.770Z,100105.59
2023-04-09T10:55:56.330Z,100106.69
2023-04-09T10:58:28.127Z,100101.22
2023-04-09T11:01:01.746Z,100105.38
2023-04-09T11:03:42.968Z,100103.16
2023-04-09T11:06:20.737Z,100104.84
2023-04-09T11:08:52.582Z,100109.75
2023-04-09T11:11:28.313Z,100102.22
2023-04-09T11:14:03.275Z,100104.66
2023-04-09T11:16:34.991Z,100109.63
2023-04-09T11:19:06.813Z,100107.25
2023-04-09T11:21:46.250Z,100105.16
2023-04-09T11:24:19.054Z,100107.47
2023-04-09T11:26:51.301Z,100110.75
2023-04-09T11:29:23.206Z,100107.59
2023-04-09T11:31:54.999Z,100110.03
2023-04-09T11:34:29.717Z,100113.34
2023-04-09T11:37:07.108Z,100116.28
2023-04-09T11:39:38.852Z,100109.03
2023-04-09T11:42:18.108Z,100118.44
2023-04-09T11:44:50.392Z,100115.69
2023-04-09T11:47:22.513Z,100104.88
2023-04-09T11:49:54.449Z,100111.78
2023-04-09T11:52:27.960Z,100115.75
2023-04-09T11:55:04.600Z,100109.56
2023-04-09T11:57:46.898Z,100110.31
2023-04-09T12:00:21.293Z,100109.81
2023-04-09T12:03:04.640Z,100114.41
2023-04-09T12:05:38.424Z,100113.28
2023-04-09T12:08:12.054Z,100112.94
2023-04-09T12:10:44.550Z,100117.47
2023-04-09T12:13:16.795Z,100122.09
2023-04-09T12:15:50.162Z,100122.31
2023-04-09T12:18:23.441Z,100116.66
2023-04-09T12:20:55.219Z,100117.56
2023-04-09T12:23:26.916Z,100123.16
2023-04-09T12:26:02.654Z,100117.19
2023-04-09T12:28:34.440Z,100121.78
2023-04-09T12:31:09.904Z,100122.94
2023-04-09T12:33:42.700Z,100120.59
2023-04-09T12:36:14.416Z,100114.47
2023-04-09T12:38:46.172Z,100111.41
2023-04-09T12:41:17.936Z,100115.84
2023-04-09T12:43:49.931Z,100116.00
2023-04-09T12:46:21.890Z,100118.41
2023-04-09T12:48:53.958Z,100112.75
2023-04-09T12:51:25.891Z,100110.13
2023-04-09T12:53:57.581Z,100111.59
2023-04-09T12:56:29.879Z,100110.56
2023-04-09T12:59:01.924Z,100108.78
2023-04-09T13:01:33.765Z,100116.47
2023-04-09T13:04:05.778Z,100120.75
2023-04-09T13:06:40.002Z,100116.13
2023-04-09T13:09:11.757Z,100107.63
2023-04-09T13:11:43.534Z,100112.28
2023-04-09T13:14:15.675Z,100108.53
2023-04-09T13:16:52.467Z,100103.47
2023-04-09T13:19:24.230Z,100103.66
2023-04-09T13:21:56.302Z,100101.41
2023-04-09T13:24:28.082Z,100102.28
2023-04-09T13:26:59.917Z,100097.53
2023-04-09T13:29:32.014Z,100101.59
2023-04-09T13:32:07.257Z,100104.09
2023-04-09T13:34:39.664Z,100097.78
2023-04-09T13:37:11.533Z,100090.25
2023-04-09T13:39:44.752Z,100101.44
2023-04-09T13:42:17.130Z,100093.63
2023-04-09T13:44:48.814Z,100099.13
2023-04-09T13:47:21.151Z,100096.84
2023-04-09T13:49:53.319Z,100104.31
2023-04-09T13:52:26.836Z,100099.56
2023-04-09T13:55:01.397Z,100100.09
2023-04-09T13:57:33.161Z,100105.06
2023-04-09T14:00:05.913Z,100104.03
2023-04-09T14:02:38.310Z,100108.34
2023-04-09T14:05:11.528Z,100104.09
2023-04-09T14:07:43.260Z,100100.16
2023-04-09T14:10:15.888Z,100099.38
2023-04-09T14:12:47.636Z,100099.84
2023-04-09T14:15:19.492Z,100101.16
2023-04-09T14:17:51.360Z,100097.50
2023-04-09T14:20:24.673Z,100095.72
2023-04-09T14:22:56.452Z,100090.28
2023-04-09T14:25:28.186Z,100083.31
2023-04-09T14:28:00.086Z,100081.00
2023-04-09T14:30:31.762Z,100086.81
2023-04-09T14:33:03.801Z,100088.97
2023-04-09T14:35:35.831Z,100082.50
2023-04-09T14:38:07.775Z,100084.34
2023-04-09T14:40:39.488Z,100085.66
2023-04-09T14:43:11.204Z,100083.50
2023-04-09T14:45:42.930Z,100086.50
2023-04-09T14:48:14.633Z,100082.38
2023-04-09T14:50:46.421Z,100073.09
2023-04-09T14:53:21.072Z,100071.06
2023-04-09T14:55:52.693Z,100078.63
2023-04-09T14:58:24.377Z,100068.00
2023-04-09T15:00:56.770Z,100070.50
2023-04-09T15:03:28.758Z,100068.34
2023-04-09T15:06:00.683Z,100073.63
2023-04-09T15:08:32.408Z,100069.47
2023-04-09T15:11:04.327Z,100072.72
2023-04-09T15:13:36.057Z,100071.22
2023-04-09T15:16:08.037Z,100073.63
2023-04-09T15:18:39.842Z,100063.13
2023-04-09T15:21:11.602Z,100071.31
2023-04-09T15:23:43.417Z,100067.81
2023-04-09T15:26:15.367Z,100067.00
2023-04-09T15:28:47.246Z,100066.50
2023-04-09T15:31:19.540Z,100065.00
2023-04-09T15:33:51.345Z,100063.34
2023-04-09T15:36:23.064Z,100062.19
2023-04-09T15:38:55.245Z,100062.41
2023-04-09T15:41:27.133Z,100055.31
2023-04-09T15:43:58.871Z,100065.91
2023-04-09T15:46:32.578Z,100065.28
2023-04-09T15:49:04.918Z,100062.13
2023-04-09T15:51:36.651Z,100066.09
2023-04-09T15:54:08.421Z,100067.91
2023-04-09T15:56:40.380Z,100068.25
2023-04-09T15:59:12.217Z,100059.63
2023-04-09T16:01:44.289Z,100066.19
2023-04-09T16:04:16.181Z,100057.59
2023-04-09T16:06:48.314Z,100064.72
2023-04-09T16:09:19.983Z,100060.47
2023-04-09T16:11:51.825Z,100068.56
2023-04-09T16:14:23.661Z,100065.75
2023-04-09T16:16:55.910Z,100069.19
2023-04-09T16:19:27.757Z,100068.38
2023-04-09T16:21:59.524Z,100073.13
2023-04-09T16:24:32.367Z,100067.00
2023-04-09T16:27:04.132Z,100059.88
2023-04-09T16:29:36.010Z,100064.00
2023-04-09T16:32:10.954Z,100067.00
2023-04-09T16:34:42.684Z,100072.50
2023-04-09T16:37:14.471Z,100065.88
2023-04-09T16:39:46.240Z,100071.69
2023-04-09T16:42:18.241Z,100061.94
2023-04-09T16:44:50.056Z,100067.38
2023-04-09T16:47:21.824Z,100069.19
2023-04-09T16:49:53.554Z,100065.06
2023-04-09T16:52:25.999Z,100065.16
2023-04-09T16:54:57.754Z,100062.00
2023-04-09T16:57:29.422Z,100070.06
2023-04-09T17:00:01.684Z,100063.16
2023-04-09T17:02:34.396Z,100068.72
2023-04-09T17:05:07.670Z,100067.47
2023-04-09T17:07:39.524Z,100074.22
2023-04-09T17:10:11.563Z,100065.75
2023-04-09T17:12:43.607Z,100073.19
2023-04-09T17:15:15.533Z,100079.53
2023-04-09T17:17:49.505Z,100080.66
2023-04-09T17:20:24.984Z,100076.34
2023-04-09T17:22:56.855Z,100085.72
2023-04-09T17:25:29.400Z,100084.66
2023-04-09T17:28:01.736Z,100081.94
2023-04-09T17:30:33.561Z,100095.09
2023-04-09T17:33:05.491Z,100098.00
2023-04-09T17:35:37.371Z,100099.53
2023-04-09T17:38:09.218Z,100110.25
2023-04-09T17:40:41.069Z,100106.50
2023-04-09T17:43:14.183Z,100108.50
2023-04-09T17:45:46.151Z,100113.91
2023-04-09T17:48:18.011Z,100116.56
2023-04-09T17:50:50.182Z,100131.72
2023-04-09T17:53:22.375Z,100134.81
2023-04-09T17:55:54.124Z,100134.94
2023-04-09T17:58:26.083Z,100139.13
2023-04-09T18:00:59.532Z,100145.13
2023-04-09T18:03:31.678Z,100154.16
2023-04-09T18:06:03.886Z,100146.56
2023-04-09T18:08:36.860Z,100148.63
2023-04-09T18:11:13.192Z,100149.91
2023-04-09T18:13:45.481Z,100148.78
2023-04-09T18:16:19.552Z,100146.72
2023-04-09T18:18:54.086Z,100157.09
2023-04-09T18:21:27.070Z,100153.06
2023-04-09T18:23:59.216Z,100153.75
2023-04-09T18:26:31.792Z,100148.34
2023-04-09T18:29:03.667Z,100148.91
2023-04-09T18:31:35.677Z,100156.94
2023-04-09T18:34:07.471Z,100150.28
2023-04-09T18:36:42.866Z,100152.66
2023-04-09T18:39:15.241Z,100150.88
2023-04-09T18:41:47.120Z,100148.38
2023-04-09T18:44:18.810Z,100143.66
2023-04-09T18:46:50.662Z,100142.97
2023-04-09T18:49:22.497Z,100146.84
2023-04-09T18:51:54.772Z,100152.69
2023-04-09T18:54:26.557Z,100151.56
2023-04-09T18:56:58.367Z,100145.03
2023-04-09T18:59:31.611Z,100149.19
2023-04-09T19:02:05.147Z,100150.84
2023-04-09T19:04:40.028Z,100143.09
2023-04-09T19:07:12.187Z,100147.66
2023-04-09T19:09:44.603Z,100145.59
2023-04-09T19:12:17.308Z,100147.78
2023-04-09T19:14:49.043Z,100145.84
2023-04-09T19:17:21.334Z,100143.22
2023-04-09T19:19:53.144Z,100144.19
2023-04-09T19:22:24.949Z,100148.31
2023-04-09T19:24:56.640Z,100140.28
2023-04-09T19:27:28.581Z,100139.44
2023-04-09T19:30:01.183Z,100133.34
2023-04-09T19:32:36.090Z,100135.97
2023-04-09T19:35:08.385Z,100131.53
2023-04-09T19:37:40.544Z,100142.91
2023-04-09T19:40:15.474Z,100130.56
2023-04-09T19:42:47.218Z,100126.97
2023-04-09T19:45:18.946Z,100133.22
2023-04-09T19:47:50.740Z,100127.81
2023-04-09T19:50:22.754Z,100132.13
2023-04-09T19:52:54.997Z,100133.81
2023-04-09T19:55:26.881Z,100125.47
2023-04-09T19:57:58.938Z,100132.09
2023-04-09T20:00:30.787Z,100131.13
2023-04-09T20:03:03.236Z,100127.00
2023-04-09T20:05:35.257Z,100128.09
2023-04-09T20:08:12.246Z,100132.09
2023-04-09T20:10:47.371Z,100130.16
2023-04-09T20:13:22.057Z,100131.56
2023-04-09T20:15:53.764Z,100129.06
2023-04-09T20:18:25.594Z,100136.72
2023-04-09T20:20:57.371Z,100127.13
2023-04-09T20:23:30.200Z,100130.34
2023-04-09T20:26:02.673Z,100135.59
2023-04-09T20:28:35.185Z,100131.72
2023-04-09T20:31:07.781Z,100134.50
2023-04-09T20:33:39.494Z,100132.44
2023-04-09T20:36:15.914Z,100131.31
2023-04-09T20:38:49.466Z,100136.19
2023-04-09T20:41:21.216Z,100132.56
2023-04-09T20:43:52.975Z,100132.56
2023-04-09T20:46:24.788Z,100136.72
2023-04-09T20:48:56.554Z,100132.97
2023-04-09T20:51:28.374Z,100139.50
2023-04-09T20:54:00.360Z,100136.84
2023-04-09T20:56:32.157Z,100134.66
2023-04-09T20:59:03.946Z,100130.34
2023-04-09T21:01:36.193Z,100136.19
2023-04-09T21:04:08.958Z,100131.31
2023-04-09T21:06:41.145Z,100137.13
2023-04-09T21:09:12.857Z,100138.81
2023-04-09T21:11:44.637Z,100137.44
2023-04-09T21:14:16.372Z,100142.00
2023-04-09T21:16:49.195Z,100141.69
2023-04-09T21:19:21.046Z,100144.19
2023-04-09T21:21:52.862Z,100142.94
2023-04-09T21:24:24.636Z,100139.75
2023-04-09T21:26:56.853Z,100144.78
2023-04-09T21:29:28.592Z,100135.34
2023-04-09T21:32:01.015Z,100136.88
2023-04-09T21:34:32.979Z,100135.88
2023-04-09T21:37:04.720Z,100141.97
2023-04-09T21:39:36.511Z,100144.47
2023-04-09T21:42:08.847Z,100146.81
2023-04-09T21:44:40.558Z,100141.53
2023-04-09T21:47:13.094Z,100139.63
2023-04-09T21:49:46.432Z,100143.09
2023-04-09T21:52:18.249Z,100145.84
2023-04-09T21:54:50.031Z,100145.19
2023-04-09T21:57:22.666Z,100149.88
2023-04-09T21:59:54.431Z,100150.31
2023-04-09T22:02:27.576Z,100145.59
2023-04-09T22:05:00.005Z,100151.56
2023-04-09T22:07:31.864Z,100154.88
2023-04-09T22:10:03.721Z,100156.00
2023-04-09T22:12:37.160Z,100156.13
2023-04-09T22:15:09.429Z,100159.06
2023-04-09T22:17:41.660Z,100164.72
2023-04-09T22:20:14.098Z,100165.84
2023-04-09T22:22:45.847Z,100161.25
2023-04-09T22:25:17.584Z,100163.50
2023-04-09T22:27:53.294Z,100157.81
2023-04-09T22:30:25.045Z,100160.03
2023-04-09T22:32:56.927Z,100164.44
2023-04-09T22:35:28.674Z,100159.47
2023-04-09T22:38:00.412Z,100156.13
2023-04-09T22:40:32.118Z,100167.66
2023-04-09T22:43:04.792Z,100170.00
2023-04-09T22:45:36.771Z,100155.56
2023-04-09T22:48:08.597Z,100161.56
2023-04-09T22:50:40.380Z,100156.16
2023-04-09T22:53:12.316Z,100156.41
2023-04-09T22:55:46.808Z,100157.53
2023-04-09T22:58:19.300Z,100163.38
2023-04-09T23:00:51.050Z,100168.06
2023-04-09T23:03:22.969Z,100162.53
2023-04-09T23:05:57.322Z,100167.66
2023-04-09T23:08:29.051Z,100161.13
2023-04-09T23:11:01.183Z,100159.03
2023-04-09T23:13:32.920Z,100162.94
2023-04-09T23:16:09.217Z,100162.81
2023-04-09T23:18:41.051Z,100160.72
2023-04-09T23:21:13.015Z,100157.94
2023-04-09T23:23:44.763Z,100151.69
2023-04-09T23:26:16.592Z,100155.31
2023-04-09T23:28:48.400Z,100150.16
2023-04-09T23:31:21.220Z,100151.28
2023-04-09T23:33:53.293Z,100149.75
2023-04-09T23:36:26.128Z,100155.84
2023-04-09T23:38:57.799Z,100165.44
2023-04-09T23:41:29.563Z,100160.47
2023-04-09T23:44:01.379Z,100161.25
2023-04-09T23:46:33.067Z,100164.59
2023-04-09T23:49:04.816Z,100164.59
2023-04-09T23:51:39.248Z,100163.63
2023-04-09T23:54:11.045Z,100154.06
2023-04-09T23:56:44.148Z,100151.97
2023-04-09T23:59:15.879Z,100146.44
